Weather reports worldwide

Advertisment
Zinnwald-Georgenfeld, Germany (10582): temperature & dewpoint: 17.10.2020 02:00:00 - 23.10.2020 02:00:00 (CEST)Zinnwald-Georgenfeld, Germany (10582): temperature 5cm & temperature -5cm: 17.10.2020 02:00:00 - 23.10.2020 02:00:00 (CEST)Zinnwald-Georgenfeld, Germany (10582): temperature -20cm & temperature -100cm: 17.10.2020 02:00:00 - 23.10.2020 02:00:00 (CEST)Zinnwald-Georgenfeld, Germany (10582): wind speed & gusts: 17.10.2020 02:00:00 - 23.10.2020 02:00:00 (CEST)Zinnwald-Georgenfeld, Germany (10582): wind direction: 17.10.2020 02:00:00 - 23.10.2020 02:00:00 (CEST)Zinnwald-Georgenfeld, Germany (10582): visibility: 17.10.2020 02:00:00 - 23.10.2020 02:00:00 (CEST)Zinnwald-Georgenfeld, Germany (10582): precipitation: 17.10.2020 02:00:00 - 23.10.2020 02:00:00 (CEST)
Date & Time tt [°C] td [°C] tt 5cm [°C] tt -5cm [°C] tt -20cm [°C] tt -100cm [°C] ff [km/h] ff [kn] fx [km/h] fx [kn] dd vv [km] rr [mm]
23.10.2020 02:00:00 10,4 9,2 9,5 8,8 8,5 9,3 19 10 36 20 SSW 20 0,3
23.10.2020 01:00:00 11,6 7,8 10,1 8,7 8,5 9,3 29 16 38 21 SW 27 0,0
23.10.2020 00:00:00 11,6 7,7 10,4 8,7 8,5 9,3 29 16 40 22 SSW 37 0,0
22.10.2020 23:00:00 11,7 7,7 10,7 8,7 8,5 9,3 27 14 36 20 SSW 42 0,0
22.10.2020 22:00:00 11,4 8,0 10,1 8,7 8,6 9,3 25 14 36 19 SSW 41 0,0
22.10.2020 21:00:00 10,6 8,2 9,3 8,7 8,6 9,3 23 13 30 16 SSW 35 0,0
22.10.2020 20:00:00 10,1 8,5 8,6 9,1 8,6 9,3 22 12 30 16 SSW 26 0,0
22.10.2020 19:00:00 10,4 8,5 9,3 9,6 8,5 9,3 22 12 30 16 SSW 28 0,0
22.10.2020 18:00:00 9,9 8,5 9,2 10,2 8,4 9,3 24 13 33 18 SSW 14 0,0
22.10.2020 17:00:00 9,0 7,9 9,0 10,9 8,2 9,3 21 12 26 14 S 8 0,0
22.10.2020 16:00:00 10,1 8,2 10,3 11,5 7,9 9,3 20 11 28 15 S 10 0,0
22.10.2020 15:00:00 11,9 8,5 13,8 12,0 7,6 9,3 19 10 24 13 S 14 0,0
22.10.2020 14:00:00 11,9 8,8 14,2 11,7 7,3 9,3 16 9 24 13 S 10 0,0
22.10.2020 13:00:00 12,3 9,2 14,0 10,7 7,1 9,3 16 8 30 16 SSE 9 0,0
22.10.2020 12:00:00 15,5 9,9 15,7 9,5 6,9 9,3 23 13 33 18 SW 40 0,0
22.10.2020 11:00:00 14,0 9,6 13,6 7,6 6,9 9,3 23 12 32 17 SW 58 0,0
22.10.2020 10:00:00 9,1 8,0 8,3 6,6 6,9 9,3 18 10 27 15 SSW 14 0,0
22.10.2020 09:00:00 9,4 7,4 7,7 6,2 6,9 9,3 20 11 31 17 SSW 43 0,0
22.10.2020 08:00:00 9,3 7,6 7,6 6,1 6,9 9,3 23 12 31 17 SSW 44 0,0
22.10.2020 07:00:00 8,9 7,3 7,6 6,0 6,9 9,3 23 13 31 17 SW 41 0,0
22.10.2020 06:00:00 5,6 5,6 5,2 6,1 6,9 9,3 18 10 24 13 S 0,1 0,0
22.10.2020 05:00:00 6,4 6,4 6,0 6,2 6,9 9,4 16 8 27 14 SSW 1,7 0,0
22.10.2020 04:00:00 5,8 5,8 5,7 6,2 6,9 9,4 20 11 29 16 S 0,1 0,0
22.10.2020 03:00:00 6,2 6,1 5,9 6,1 6,9 9,4 20 11 28 15 SSW 6 0,0
22.10.2020 02:00:00 5,5 5,5 5,3 6,2 6,9 9,4 24 13 31 17 S 0,1 0,0
22.10.2020 01:00:00 5,6 5,6 5,5 6,2 7,0 9,4 23 12 31 17 S 0,1 0,0
22.10.2020 00:00:00 6,0 6,0 5,9 6,2 7,0 9,4 26 14 33 18 S 0,1 0,0
21.10.2020 23:00:00 5,9 5,9 5,7 6,1 7,0 9,4 27 14 38 21 S 0,1 0,0
21.10.2020 22:00:00 5,6 5,6 5,3 6,2 7,0 9,4 29 16 36 19 S 0,1 0,0
21.10.2020 21:00:00 5,5 5,5 5,4 6,5 7,0 9,4 26 14 36 19 S 0,1 0,0
21.10.2020 20:00:00 5,4 5,4 5,4 6,6 7,0 9,4 25 13 37 20 S 0,1 0,0
21.10.2020 19:00:00 5,3 5,3 5,3 6,7 7,0 9,4 29 16 44 24 S 0,1 0,0
21.10.2020 18:00:00 5,2 5,2 5,1 7,0 6,9 9,4 31 17 43 23 S 0,1 0,0
21.10.2020 17:00:00 4,8 4,8 5,1 7,5 6,8 9,4 29 16 41 22 S 0,1 0,0
21.10.2020 16:00:00 4,8 4,7 5,2 7,9 6,6 9,4 29 15 43 23 S 0,1 0,0
21.10.2020 15:00:00 5,4 5,2 6,7 7,9 6,5 9,4 25 13 36 19 S 12 0,0
21.10.2020 14:00:00 5,6 5,6 6,8 7,2 6,4 9,4 19 11 36 20 S 0,2 0,0
21.10.2020 13:00:00 4,4 4,4 4,9 6,7 6,3 9,4 27 15 36 19 S 0,1 0,0
21.10.2020 12:00:00 4,6 4,6 5,6 6,3 6,3 9,4 26 14 35 19 S 0,1 0,0
21.10.2020 11:00:00 4,1 4,1 4,6 5,7 6,3 9,4 23 12 32 17 S 0,1 0,0
21.10.2020 10:00:00 3,9 3,9 4,3 5,4 6,3 9,4 19 11 33 18 S 0,1 0,0
21.10.2020 09:00:00 3,6 3,6 3,7 5,1 6,3 9,4 25 14 35 19 S 0,1 0,0
21.10.2020 08:00:00 3,4 3,4 3,5 5,1 6,3 9,4 24 13 39 21 SSE 0,1 0,0
21.10.2020 07:00:00 3,7 3,7 3,7 5,1 6,3 9,4 29 16 39 21 SSE 0,1 0,0
21.10.2020 06:00:00 4,0 4,0 4,0 5,2 6,3 9,4 26 14 36 20 SSE 0,1 0,0
21.10.2020 05:00:00 4,1 4,1 4,1 5,2 6,3 9,5 27 15 44 24 S 0,1 0,0
21.10.2020 04:00:00 4,3 4,3 4,3 5,2 6,3 9,5 34 18 45 25 S - 0,0
21.10.2020 03:00:00 4,3 4,3 4,3 5,2 6,3 9,5 21 12 37 20 S 0,1 0,0
21.10.2020 02:00:00 4,4 4,4 4,4 5,2 6,3 9,5 21 12 31 17 S 0,1 0,0
21.10.2020 01:00:00 4,5 4,5 4,5 5,1 6,3 9,5 22 12 32 18 S 0,1 0,0
21.10.2020 00:00:00 4,5 4,5 4,2 5,1 6,4 9,5 19 11 34 19 S 0,3 0,0
20.10.2020 23:00:00 5,1 4,8 4,7 5,1 6,4 9,5 24 13 36 20 S 9 0,0
20.10.2020 22:00:00 4,9 4,7 4,5 5,0 6,4 9,5 24 13 37 20 S 10 0,0
20.10.2020 21:00:00 4,7 4,5 4,2 5,1 6,4 9,5 28 15 40 22 S 11 0,0
20.10.2020 20:00:00 4,3 4,3 3,8 5,4 6,4 9,5 29 16 42 23 S 0,4 0,0
20.10.2020 19:00:00 4,0 4,0 4,0 5,7 6,4 9,5 27 15 42 23 S 0,1 0,0
20.10.2020 18:00:00 4,0 4,0 4,1 6,0 6,3 9,5 26 14 41 22 S 0,1 0,0
20.10.2020 17:00:00 3,9 3,9 4,2 6,4 6,2 9,5 32 17 42 23 S 0,1 0,0
20.10.2020 16:00:00 4,3 4,2 5,1 6,4 6,1 9,5 31 17 41 22 S 9 0,0
20.10.2020 15:00:00 2,8 2,8 3,5 6,3 6,0 9,5 34 18 43 23 S 0,1 0,0
20.10.2020 14:00:00 2,7 2,7 4,1 6,0 5,9 9,5 28 15 42 23 S 0,2 0,0
20.10.2020 13:00:00 2,0 2,0 3,1 5,3 5,9 9,5 32 18 46 25 S 0,1 0,0
20.10.2020 12:00:00 1,9 1,9 2,8 4,7 5,9 9,5 30 16 44 24 S 0,1 0,0
20.10.2020 11:00:00 1,5 1,5 2,0 4,2 5,9 9,5 35 19 48 26 S 0,1 0,0
20.10.2020 10:00:00 1,3 1,3 1,8 3,8 6,0 9,5 35 19 56 30 S 0,1 0,0
20.10.2020 09:00:00 0,5 0,5 0,7 3,6 6,0 9,5 40 21 56 30 S 0,1 0,0
20.10.2020 08:00:00 0,7 0,7 0,7 3,7 6,1 9,5 39 21 51 28 S 0,1 0,0
20.10.2020 07:00:00 1,5 1,5 1,6 3,7 6,2 9,5 35 19 50 27 S 0,1 0,0
20.10.2020 06:00:00 2,0 2,0 2,0 3,7 6,3 9,5 32 18 54 29 S 0,1 0,0
20.10.2020 05:00:00 1,8 1,7 1,6 3,6 6,4 9,5 41 22 59 32 S 0,1 0,0
20.10.2020 04:00:00 1,5 1,4 0,9 3,8 6,5 9,5 39 21 57 31 S 3,6 0,0
20.10.2020 03:00:00 1,6 1,4 1,1 4,2 6,6 9,6 39 21 54 29 S 0,8 0,0
20.10.2020 02:00:00 2,2 2,1 2,0 4,6 6,7 9,6 32 17 43 23 S 0,1 0,0
20.10.2020 01:00:00 2,2 2,1 2,1 4,7 6,7 9,6 13 7 23 13 SSE 0,1 0,0
20.10.2020 00:00:00 2,6 2,5 2,4 4,9 6,8 9,6 13 7 22 12 S 0,1 0,0
19.10.2020 23:00:00 2,3 1,8 1,3 4,8 6,9 9,6 6 4 16 8 SSE 1,8 0,0
19.10.2020 22:00:00 3,1 2,3 -0,7 5,6 6,9 9,6 6 4 11 6 SSE 13 0,0
19.10.2020 21:00:00 3,5 2,2 2,7 5,9 6,9 9,6 10 6 13 7 S 24 0,0
19.10.2020 20:00:00 3,7 2,3 2,9 6,2 6,9 9,6 8 4 13 7 S 28 0,0
19.10.2020 19:00:00 4,0 2,6 3,3 6,6 6,9 9,6 9 5 15 8 S 23 0,0
19.10.2020 18:00:00 4,6 3,2 4,1 7,1 6,8 9,6 10 5 13 7 S 21 0,0
19.10.2020 17:00:00 5,4 2,5 5,0 7,4 6,6 9,6 9 5 18 10 SW 54 0,0
19.10.2020 16:00:00 5,5 2,6 5,7 7,5 6,5 9,6 13 7 18 10 WSW 46 0,0
19.10.2020 15:00:00 5,6 3,2 6,0 7,6 6,4 9,6 12 7 27 14 W 35 0,0
19.10.2020 14:00:00 5,3 3,2 6,0 7,2 6,2 9,6 16 8 29 16 W 29 0,0
19.10.2020 13:00:00 4,7 3,5 5,8 6,4 6,2 9,6 16 9 26 14 W 16 0,0
19.10.2020 12:00:00 4,0 3,7 4,8 5,8 6,1 9,6 13 7 24 13 W 5 0,0
19.10.2020 11:00:00 3,6 3,5 4,4 5,1 6,1 9,6 14 7 23 12 W 4,8 0,1
19.10.2020 10:00:00 3,3 3,2 3,6 4,9 6,1 9,6 11 6 22 12 W 0,3 0,0
19.10.2020 09:00:00 3,1 3,1 3,3 4,7 6,2 9,6 10 5 18 10 WSW 0,1 0,0
19.10.2020 08:00:00 2,9 2,8 3,0 4,6 6,2 9,6 11 6 21 11 WSW 0,1 0,0
19.10.2020 07:00:00 2,9 2,8 3,0 4,6 6,2 9,6 10 5 26 14 WNW 0,2 0,2
19.10.2020 06:00:00 3,0 3,0 3,0 4,6 6,2 9,6 9 5 22 12 W 0,1 0,0
19.10.2020 05:00:00 3,0 2,9 3,0 4,6 6,3 9,6 8 4 22 12 W 0,2 0,2
19.10.2020 04:00:00 2,9 2,6 2,9 4,6 6,3 9,7 11 6 22 12 W 2,8 0,0
19.10.2020 03:00:00 3,0 2,5 2,8 4,6 6,3 9,7 11 6 27 15 WNW 4,7 0,2
19.10.2020 02:00:00 3,1 2,4 2,9 4,6 6,4 9,7 13 7 23 12 WNW 9 0,0
19.10.2020 01:00:00 3,1 2,4 2,8 4,6 6,4 9,7 9 5 22 12 W 11 0,0
19.10.2020 00:00:00 3,1 2,4 2,8 4,6 6,5 9,7 10 5 22 12 WNW 10 0,1
18.10.2020 23:00:00 3,0 1,8 2,5 4,5 6,5 9,7 11 6 25 14 W 23 0,0
18.10.2020 22:00:00 3,0 1,7 1,9 4,7 6,6 9,7 13 7 26 14 W 28 0,0
18.10.2020 21:00:00 3,2 1,9 2,7 4,9 6,7 9,7 12 7 25 13 W 35 0,0
18.10.2020 20:00:00 3,0 1,7 2,2 5,0 6,7 9,7 12 6 31 17 W 41 0,0
18.10.2020 19:00:00 3,3 1,6 2,4 5,6 6,7 9,7 15 8 31 17 W 47 0,0
18.10.2020 18:00:00 3,6 1,6 3,1 6,1 6,6 9,7 18 10 36 19 WNW 45 0,0
18.10.2020 17:00:00 3,9 1,6 3,7 6,5 6,5 9,7 19 10 37 20 W 50 0,0
18.10.2020 16:00:00 4,2 1,7 4,6 6,6 6,5 9,7 19 10 33 18 W 46 0,0
18.10.2020 15:00:00 4,1 1,8 4,4 6,6 6,4 9,7 17 9 39 21 W 55 0,0
18.10.2020 14:00:00 4,2 2,7 4,8 6,5 6,3 9,7 18 10 41 22 W 33 0,0
18.10.2020 13:00:00 3,8 2,8 4,2 6,1 6,2 9,7 22 12 38 21 W 19 0,0
18.10.2020 12:00:00 3,6 2,5 3,9 5,6 6,2 9,7 20 11 39 21 W 23 0,0
18.10.2020 11:00:00 3,3 2,8 3,7 5,1 6,2 9,7 17 9 37 20 WNW 7 0,0
18.10.2020 10:00:00 3,2 2,9 3,5 4,8 6,2 9,8 14 8 32 17 WNW 7 0,0
18.10.2020 09:00:00 3,1 2,9 3,2 4,6 6,2 9,8 16 8 32 18 WNW 4,2 0,2
18.10.2020 08:00:00 2,7 2,5 2,7 4,5 6,2 9,8 11 6 40 21 NW 5 0,5
18.10.2020 07:00:00 3,0 2,8 3,0 4,6 6,3 9,8 15 8 31 17 WNW 5 0,0
18.10.2020 06:00:00 3,0 2,9 3,0 4,7 6,3 9,8 14 8 33 18 NW 0,5 0,0
18.10.2020 05:00:00 3,0 2,9 3,0 4,7 6,3 9,8 16 8 29 16 WNW 0,1 0,3
18.10.2020 04:00:00 3,0 2,8 3,0 4,7 6,3 9,8 16 9 31 17 NW 4,3 0,0
18.10.2020 03:00:00 3,1 3,0 3,2 4,7 6,4 9,8 11 6 26 14 WNW 0,2 0,0
18.10.2020 02:00:00 2,9 2,8 3,0 4,7 6,4 9,8 14 8 29 16 WNW 0,4 0,0
18.10.2020 01:00:00 2,9 2,7 2,9 4,7 6,5 9,8 15 8 31 17 WNW 11 0,0
18.10.2020 00:00:00 2,8 2,7 2,9 4,7 6,5 9,8 10 6 24 13 NW 0,2 0,0
17.10.2020 23:00:00 2,2 1,6 2,0 4,7 6,6 9,8 13 7 26 14 NW 60 0,3
17.10.2020 22:00:00 2,8 2,4 2,8 5,0 6,6 9,8 15 8 27 15 NW 9 0,1
17.10.2020 21:00:00 3,0 2,8 2,9 5,1 6,6 9,8 11 6 22 12 NW 9 0,1
17.10.2020 20:00:00 2,6 2,3 2,5 5,1 6,7 9,8 13 7 24 13 NNW 17 0,0
17.10.2020 19:00:00 2,4 1,9 1,4 5,4 6,7 9,9 16 8 27 14 NNW 21 0,0
17.10.2020 18:00:00 3,0 2,6 3,0 6,1 6,6 9,9 18 10 29 16 N 14 0,0
17.10.2020 17:00:00 3,4 2,8 3,5 6,4 6,5 9,9 18 10 31 17 N 21 0,0
17.10.2020 16:00:00 3,4 2,4 3,7 6,7 6,4 9,9 19 10 31 17 NNW 33 0,0
17.10.2020 15:00:00 3,5 2,7 4,0 6,6 6,3 9,9 18 10 30 16 NNW 26 0,0
17.10.2020 14:00:00 3,7 3,3 6,7 6,3 6,2 9,9 18 10 30 16 N 30 0,0
17.10.2020 13:00:00 3,6 3,5 4,8 5,9 6,2 9,9 20 11 31 17 N 11 0,2
17.10.2020 12:00:00 2,9 2,9 3,4 5,3 6,2 9,9 14 8 29 16 N 0,4 0,8
17.10.2020 11:00:00 3,1 3,1 3,6 5,0 6,2 9,9 12 6 25 14 N 0,3 0,5
17.10.2020 10:00:00 2,9 2,9 3,2 4,7 6,2 9,9 13 7 24 13 N 0,6 1,0
17.10.2020 09:00:00 2,9 2,9 3,0 4,6 6,3 10,0 16 9 27 15 N 1,4 1,1
17.10.2020 08:00:00 3,0 3,0 3,0 4,6 6,3 10,0 14 8 26 14 N 0,8 1,7
17.10.2020 07:00:00 2,9 2,8 2,9 4,6 6,4 10,0 12 6 27 14 N 1,4 1,1
17.10.2020 06:00:00 2,7 2,7 2,8 4,6 6,4 10,0 18 10 29 16 N 0,6 0,9
17.10.2020 05:00:00 3,0 3,0 3,0 4,7 6,5 10,0 16 9 28 15 N 0,2 1,9
17.10.2020 04:00:00 3,2 3,2 3,2 4,8 6,5 10,0 19 10 29 16 N 0,5 1,4
17.10.2020 03:00:00 3,1 3,1 3,1 4,8 6,6 10,0 18 10 31 17 N 0,4 1,4
17.10.2020 02:00:00 3,1 3,1 3,1 4,9 6,6 10,0 20 11 33 18 N 0,2 0,0

tt = temperature
td = dewpoint
tt 5cm = temperature 5cm
tt -5cm = temperature -5cm
tt -20cm = temperature -20cm
tt -100cm = temperature -100cm
ff = wind speed
fx = gusts
dd = wind direction
vv = visibility
rr = precipitation

Next stations